Terminal Aerodrome Forecast
Issued by NWS Duluth, MN

Home | Current Version | Previous Version | Text Only | Print | Product List | Glossary On
Versions: 1 2 3 4 5 6 7 8 9 10 11 12 13 14 15 16 17 18 19 20 21 22 23 24 25 26 27
326
FTUS43 KDLH 252127 AAB
TAFDLH
TAF AMD
KDLH 252127Z 2521/2618 10011KT P6SM VCSH BKN050
     FM260000 06012G19KT 5SM -RA BR SCT007 OVC012
     FM260200 05014G24KT 2SM RA BR OVC007
     FM260600 05018G28KT 2SM RA BR OVC004
     FM261200 05020G30KT 2SM RAPL BR OVC007=

USA.gov is the U.S. government's official web portal to all federal, state and local government web resources and services.